Zeynalabdin Tagiyev — 9HLD8 — position and weather

sailwx.info

Track history (hours):
 
Tides and Currents Weather Stations Pressure Air Temp Water Temp Dewpoint Dewpoint Depression Visibility Wind Speed Wind Dir Waves Ship Positions

Zeynalabdin Tagiyev

Last reported at 2016-Sep-27 13:32 UTC. Time now 2016-Sep-30 03:15 UTC.
Position N 45°12' E 036°28'.

Length 140 m; draft 4.2 m.

Type: Cargo ship. MMSI: 256107000.

Date/timePositionNaut miles runAvg speedWind from/ knotsBaromVisibWave heightAir tempDewpointWater temp
2016-Sep-27 13:32N 45°12' E 036°28'19 6.4
2016-Sep-27 10:33N 45°30' E 036°38'101 7.2
2016-Sep-26 20:30N 46°47' E 038°11'3 2.9
2016-Sep-26 19:25N 46°45' E 038°13'0 0.0
2016-Sep-26 13:20N 46°45' E 038°13'0 0.0
2016-Sep-26 08:27N 46°45' E 038°13'0 0.0
2016-Sep-26 02:29N 46°45' E 038°13'0 0.0
2016-Sep-26 01:31N 46°45' E 038°13'0 0.0
2016-Sep-26 00:29N 46°45' E 038°13'0 0.0
2016-Sep-25 21:33N 46°45' E 038°13'0 0.0
2016-Sep-25 17:27N 46°45' E 038°13'0 0.0
2016-Sep-25 16:29N 46°45' E 038°13'0 0.0
2016-Sep-25 15:32N 46°45' E 038°13'0 0.0
2016-Sep-25 14:30N 46°45' E 038°13'0 0.0
2016-Sep-25 12:29N 46°45' E 038°13'0 0.0
2016-Sep-25 11:32N 46°45' E 038°13'0 0.0
2016-Sep-25 10:30N 46°45' E 038°13'0 0.0
2016-Sep-25 09:32N 46°45' E 038°13'0 0.0
2016-Sep-25 07:32N 46°45' E 038°13'3 0.9
2016-Sep-25 04:29N 46°44' E 038°17'0 0.0
2016-Sep-25 00:29N 46°44' E 038°17'0 0.0
2016-Sep-24 19:33N 46°44' E 038°17'0 0.0
2016-Sep-24 18:28N 46°44' E 038°17'0 0.0
2016-Sep-24 17:33N 46°44' E 038°17'0 0.0
2016-Sep-24 14:13N 46°44' E 038°17'0 0.0
2016-Sep-24 12:22N 46°44' E 038°17'0 0.0
2016-Sep-24 10:29N 46°44' E 038°17'0 0.0
2016-Sep-24 09:32N 46°44' E 038°17'0 0.0
2016-Sep-24 03:25N 46°44' E 038°17'0 0.0
2016-Sep-24 02:30N 46°44' E 038°17'0 0.0
2016-Sep-24 01:32N 46°44' E 038°17'0 0.0
2016-Sep-24 00:27N 46°44' E 038°17'0 0.0
2016-Sep-23 19:29N 46°44' E 038°17'2 0.2
2016-Sep-23 04:06N 46°45' E 038°13'0 0.0
2016-Sep-23 03:29N 46°45' E 038°13'0 0.0
2016-Sep-23 02:30N 46°45' E 038°13'0 0.0
2016-Sep-23 01:29N 46°45' E 038°13'0 0.0
2016-Sep-23 00:31N 46°45' E 038°13'0 0.0
2016-Sep-22 23:29N 46°45' E 038°13'0 0.0
2016-Sep-22 20:31N 46°45' E 038°13'0 0.0
2016-Sep-22 12:30N 46°45' E 038°14'0 0.0
2016-Sep-22 04:32N 46°45' E 038°14'0 0.0
2016-Sep-22 03:29N 46°45' E 038°14'0 0.0
2016-Sep-22 00:32N 46°45' E 038°14'0 0.0
2016-Sep-21 23:32N 46°45' E 038°14'0 0.0
2016-Sep-21 22:30N 46°45' E 038°14'0 0.0
2016-Sep-21 19:28N 46°45' E 038°14'0 0.0
2016-Sep-21 09:33N 46°45' E 038°14'0 0.0
2016-Sep-21 03:33N 46°45' E 038°14'0 0.0
2016-Sep-21 02:33N 46°45' E 038°13'0 0.0
2016-Sep-20 17:29N 46°45' E 038°13'100 6.7
2016-Sep-20 02:34N 45°28' E 036°42'17 5.7
2016-Sep-19 23:33N 45°14' E 036°29'415 9.2
2016-Sep-18 02:26N 40°59' E 028°60'4 0.7
2016-Sep-17 20:29N 40°58' E 028°55'  
Track history (hours):
 
Tides and Currents Weather Stations Pressure Air Temp Water Temp Dewpoint Dewpoint Depression Visibility Wind Speed Wind Dir Waves Ship Positions

Zeynalabdin Tagiyev

Last reported at 2016-Sep-27 13:32 UTC. Time now 2016-Sep-30 03:15 UTC.
Position N 45°12' E 036°28'.

Length 140 m; draft 4.2 m.

Type: Cargo ship. MMSI: 256107000.

Date/timePositionNaut miles runAvg speedWind from/ knotsBaromVisibWave heightAir tempDewpointWater temp
2016-Sep-27 13:32N 45°12' E 036°28'19 6.4
2016-Sep-27 10:33N 45°30' E 036°38'101 7.2
2016-Sep-26 20:30N 46°47' E 038°11'3 2.9
2016-Sep-26 19:25N 46°45' E 038°13'0 0.0
2016-Sep-26 13:20N 46°45' E 038°13'0 0.0
2016-Sep-26 08:27N 46°45' E 038°13'0 0.0
2016-Sep-26 02:29N 46°45' E 038°13'0 0.0
2016-Sep-26 01:31N 46°45' E 038°13'0 0.0
2016-Sep-26 00:29N 46°45' E 038°13'0 0.0
2016-Sep-25 21:33N 46°45' E 038°13'0 0.0
2016-Sep-25 17:27N 46°45' E 038°13'0 0.0
2016-Sep-25 16:29N 46°45' E 038°13'0 0.0
2016-Sep-25 15:32N 46°45' E 038°13'0 0.0
2016-Sep-25 14:30N 46°45' E 038°13'0 0.0
2016-Sep-25 12:29N 46°45' E 038°13'0 0.0
2016-Sep-25 11:32N 46°45' E 038°13'0 0.0
2016-Sep-25 10:30N 46°45' E 038°13'0 0.0
2016-Sep-25 09:32N 46°45' E 038°13'0 0.0
2016-Sep-25 07:32N 46°45' E 038°13'3 0.9
2016-Sep-25 04:29N 46°44' E 038°17'0 0.0
2016-Sep-25 00:29N 46°44' E 038°17'0 0.0
2016-Sep-24 19:33N 46°44' E 038°17'0 0.0
2016-Sep-24 18:28N 46°44' E 038°17'0 0.0
2016-Sep-24 17:33N 46°44' E 038°17'0 0.0
2016-Sep-24 14:13N 46°44' E 038°17'0 0.0
2016-Sep-24 12:22N 46°44' E 038°17'0 0.0
2016-Sep-24 10:29N 46°44' E 038°17'0 0.0
2016-Sep-24 09:32N 46°44' E 038°17'0 0.0
2016-Sep-24 03:25N 46°44' E 038°17'0 0.0
2016-Sep-24 02:30N 46°44' E 038°17'0 0.0
2016-Sep-24 01:32N 46°44' E 038°17'0 0.0
2016-Sep-24 00:27N 46°44' E 038°17'0 0.0
2016-Sep-23 19:29N 46°44' E 038°17'2 0.2
2016-Sep-23 04:06N 46°45' E 038°13'0 0.0
2016-Sep-23 03:29N 46°45' E 038°13'0 0.0
2016-Sep-23 02:30N 46°45' E 038°13'0 0.0
2016-Sep-23 01:29N 46°45' E 038°13'0 0.0
2016-Sep-23 00:31N 46°45' E 038°13'0 0.0
2016-Sep-22 23:29N 46°45' E 038°13'0 0.0
2016-Sep-22 20:31N 46°45' E 038°13'0 0.0
2016-Sep-22 12:30N 46°45' E 038°14'0 0.0
2016-Sep-22 04:32N 46°45' E 038°14'0 0.0
2016-Sep-22 03:29N 46°45' E 038°14'0 0.0
2016-Sep-22 00:32N 46°45' E 038°14'0 0.0
2016-Sep-21 23:32N 46°45' E 038°14'0 0.0
2016-Sep-21 22:30N 46°45' E 038°14'0 0.0
2016-Sep-21 19:28N 46°45' E 038°14'0 0.0
2016-Sep-21 09:33N 46°45' E 038°14'0 0.0
2016-Sep-21 03:33N 46°45' E 038°14'0 0.0
2016-Sep-21 02:33N 46°45' E 038°13'0 0.0
2016-Sep-20 17:29N 46°45' E 038°13'100 6.7
2016-Sep-20 02:34N 45°28' E 036°42'17 5.7
2016-Sep-19 23:33N 45°14' E 036°29'415 9.2
2016-Sep-18 02:26N 40°59' E 028°60'4 0.7
2016-Sep-17 20:29N 40°58' E 028°55'  

Dump ship's entire track history